Time;durP1;ratioP1;P1;durP2;ratioP2;P2;SDS_P1;SDS_P2;PMS_P1;PMS_P2;Temp;Humidity;BMP_temperature;BMP_pressure;BME280_temperature;BME280_humidity;BME280_pressure;Samples;Min_cycle;Max_cycle;Signal;HPM_P1;HPM_P2
2024/01/27 00:00:07;;;;;;;8.80;5.90;;;;;;;;;;43573;270;3031710;-31
2024/01/27 00:01:54;;;;;;;8.80;6.20;;;;;;;;;;43724;270;3031811;-32
2024/01/27 00:03:44;;;;;;;7.50;5.50;;;;;;;;;;43552;278;3031542;-32
2024/01/27 00:05:31;;;;;;;8.50;5.90;;;;;;;;;;43573;278;3031811;-32
2024/01/27 00:07:16;;;;;;;7.50;5.40;;;;;;;;;;43544;270;3032722;-32
2024/01/27 00:09:05;;;;;;;8.90;5.70;;;;;;;;;;43585;271;3031357;-32
2024/01/27 00:10:53;;;;;;;7.40;5.10;;;;;;;;;;43558;271;3032128;-31
2024/01/27 00:12:42;;;;;;;7.80;5.10;;;;;;;;;;43590;279;3032008;-30
2024/01/27 00:14:32;;;;;;;7.00;4.70;;;;;;;;;;43575;279;3031236;-30
2024/01/27 00:16:18;;;;;;;7.30;4.90;;;;;;;;;;43512;279;3031040;-31
2024/01/27 00:18:06;;;;;;;8.00;4.70;;;;;;;;;;43558;267;3037340;-30
2024/01/27 00:19:51;;;;;;;8.70;4.70;;;;;;;;;;44238;271;3031632;-31
2024/01/27 00:21:39;;;;;;;7.00;4.50;;;;;;;;;;43978;267;3031461;-31
2024/01/27 00:23:27;;;;;;;6.50;4.20;;;;;;;;;;43576;287;3031459;-31
2024/01/27 00:25:15;;;;;;;6.80;4.30;;;;;;;;;;43605;287;3032006;-32
2024/01/27 00:27:03;;;;;;;6.90;4.30;;;;;;;;;;43555;278;3031234;-31
2024/01/27 00:28:48;;;;;;;6.30;3.80;;;;;;;;;;44224;275;3031252;-31
2024/01/27 00:30:33;;;;;;;6.30;4.00;;;;;;;;;;44219;271;3031625;-31
2024/01/27 00:32:23;;;;;;;6.30;3.70;;;;;;;;;;43965;275;3031512;-30
2024/01/27 00:34:16;;;;;;;6.20;3.70;;;;;;;;;;43569;279;3031669;-30
2024/01/27 00:36:06;;;;;;;6.70;3.90;;;;;;;;;;43568;275;3032086;-30
2024/01/27 00:37:51;;;;;;;6.00;3.50;;;;;;;;;;44175;274;3031721;-30
2024/01/27 00:39:36;;;;;;;5.80;3.20;;;;;;;;;;44062;278;3031184;-30
2024/01/27 00:41:23;;;;;;;6.80;3.80;;;;;;;;;;43581;286;3031381;-30
2024/01/27 00:43:09;;;;;;;6.40;3.60;;;;;;;;;;43593;278;3034063;-30
2024/01/27 00:44:55;;;;;;;6.30;3.10;;;;;;;;;;44271;274;3031180;-30
2024/01/27 00:46:47;;;;;;;6.00;3.00;;;;;;;;;;43688;278;3031305;-30
2024/01/27 00:48:38;;;;;;;5.30;3.00;;;;;;;;;;43541;278;3039184;-30
2024/01/27 00:50:28;;;;;;;5.80;2.80;;;;;;;;;;43575;270;3031520;-30
2024/01/27 00:52:19;;;;;;;5.50;3.10;;;;;;;;;;43563;278;3032091;-30
2024/01/27 00:54:05;;;;;;;6.30;3.30;;;;;;;;;;43581;278;3032092;-30
2024/01/27 00:55:54;;;;;;;4.90;2.50;;;;;;;;;;43584;278;3031231;-30
2024/01/27 00:57:45;;;;;;;6.10;2.80;;;;;;;;;;43568;278;3031697;-30
2024/01/27 00:59:36;;;;;;;5.30;2.40;;;;;;;;;;43579;270;3031324;-30
2024/01/27 01:01:25;;;;;;;5.10;2.60;;;;;;;;;;43583;270;3033809;-30
2024/01/27 01:03:17;;;;;;;5.80;3.00;;;;;;;;;;43576;278;3031091;-30
2024/01/27 01:05:08;;;;;;;5.30;2.60;;;;;;;;;;43578;282;3032547;-30
2024/01/27 01:07:01;;;;;;;5.30;2.70;;;;;;;;;;44046;270;3031401;-30
2024/01/27 01:08:51;;;;;;;5.30;2.70;;;;;;;;;;43546;265;3031720;-30
2024/01/27 01:10:43;;;;;;;5.40;2.70;;;;;;;;;;43581;282;3031096;-30
2024/01/27 01:12:31;;;;;;;5.10;2.50;;;;;;;;;;43586;270;3031675;-30
2024/01/27 01:14:17;;;;;;;5.40;2.30;;;;;;;;;;43591;266;3032026;-30
2024/01/27 01:16:07;;;;;;;5.50;2.50;;;;;;;;;;43588;270;3032055;-30
2024/01/27 01:17:57;;;;;;;5.10;2.30;;;;;;;;;;43961;270;3031678;-30
2024/01/27 01:19:46;;;;;;;5.80;2.30;;;;;;;;;;43605;266;3031842;-30
2024/01/27 01:21:37;;;;;;;5.00;2.40;;;;;;;;;;43567;278;3032141;-30
2024/01/27 01:23:28;;;;;;;4.90;2.40;;;;;;;;;;43595;278;3031299;-30
2024/01/27 01:25:17;;;;;;;4.90;2.20;;;;;;;;;;43576;278;3031716;-31
2024/01/27 01:27:08;;;;;;;4.90;2.20;;;;;;;;;;43587;270;3032180;-31
2024/01/27 01:28:54;;;;;;;4.90;2.40;;;;;;;;;;43535;266;3031967;-31
2024/01/27 01:30:41;;;;;;;5.40;2.50;;;;;;;;;;44132;274;3031345;-31
2024/01/27 01:32:27;;;;;;;5.00;2.20;;;;;;;;;;44288;270;3032396;-31
2024/01/27 01:34:16;;;;;;;5.10;2.40;;;;;;;;;;43639;270;3031590;-31
2024/01/27 01:36:05;;;;;;;4.70;2.10;;;;;;;;;;44208;266;3031882;-31
2024/01/27 01:37:56;;;;;;;;;;;;;;;;;;43612;278;3031971;-31
2024/01/27 01:39:56;;;;;;;4.60;2.00;;;;;;;;;;43573;270;3037647;-31
2024/01/27 01:41:47;;;;;;;5.10;2.30;;;;;;;;;;43581;278;3031926;-31
2024/01/27 01:43:43;;;;;;;3.70;1.70;;;;;;;;;;43591;278;3031277;-31
2024/01/27 01:45:31;;;;;;;4.60;2.00;;;;;;;;;;43584;278;3031654;-31
2024/01/27 01:47:22;;;;;;;4.70;2.30;;;;;;;;;;43593;270;3031388;-31
2024/01/27 01:49:12;;;;;;;4.40;1.90;;;;;;;;;;43570;270;3031678;-31
2024/01/27 01:51:03;;;;;;;4.60;1.80;;;;;;;;;;43599;286;3033930;-31
2024/01/27 01:52:55;;;;;;;5.30;1.90;;;;;;;;;;43592;270;3031298;-31
2024/01/27 01:54:46;;;;;;;4.70;1.90;;;;;;;;;;43584;270;3031680;-31
2024/01/27 01:56:37;;;;;;;4.30;1.70;;;;;;;;;;43566;287;3031461;-31
2024/01/27 01:58:34;;;;;;;4.40;2.00;;;;;;;;;;43552;279;3031812;-31
2024/01/27 02:00:22;;;;;;;5.10;2.20;;;;;;;;;;43576;278;3038942;-31
2024/01/27 02:02:08;;;;;;;4.70;1.80;;;;;;;;;;43841;277;3031856;-31
2024/01/27 02:04:01;;;;;;;4.60;1.90;;;;;;;;;;43963;278;3032585;-31
2024/01/27 02:05:48;;;;;;;4.80;1.90;;;;;;;;;;43579;266;3031930;-31
2024/01/27 02:07:35;;;;;;;4.30;1.70;;;;;;;;;;43576;278;3030937;-31
2024/01/27 02:09:29;;;;;;;4.40;1.70;;;;;;;;;;43591;270;3031343;-31
2024/01/27 02:11:21;;;;;;;3.90;1.70;;;;;;;;;;43594;270;3031542;-31
2024/01/27 02:13:21;;;;;;;4.10;1.90;;;;;;;;;;43586;278;3033919;-31
2024/01/27 02:15:10;;;;;;;4.90;1.80;;;;;;;;;;43596;270;3033032;-31
2024/01/27 02:17:04;;;;;;;5.20;1.80;;;;;;;;;;44029;270;3031787;-31
2024/01/27 02:18:54;;;;;;;5.00;1.70;;;;;;;;;;43572;270;3031180;-31
2024/01/27 02:20:49;;;;;;;4.40;1.80;;;;;;;;;;43556;278;3031454;-31
2024/01/27 02:22:39;;;;;;;4.70;1.90;;;;;;;;;;43573;266;3031669;-31
2024/01/27 02:24:29;;;;;;;4.90;1.90;;;;;;;;;;44030;274;3030943;-31
2024/01/27 02:26:18;;;;;;;4.70;2.00;;;;;;;;;;43599;274;3031666;-31
2024/01/27 02:28:08;;;;;;;4.70;1.70;;;;;;;;;;43590;270;3031607;-31
2024/01/27 02:29:52;;;;;;;4.20;1.60;;;;;;;;;;44220;278;3031137;-31
2024/01/27 02:31:41;;;;;;;4.70;1.70;;;;;;;;;;43635;278;3031633;-31
2024/01/27 02:33:35;;;;;;;4.40;1.70;;;;;;;;;;43580;270;3031183;-31
2024/01/27 02:35:27;;;;;;;4.30;1.60;;;;;;;;;;43616;267;3031724;-31
2024/01/27 02:37:16;;;;;;;4.10;1.50;;;;;;;;;;43566;270;3031343;-31
2024/01/27 02:39:06;;;;;;;4.70;1.70;;;;;;;;;;43615;283;3031105;-31
2024/01/27 02:40:57;;;;;;;4.00;1.60;;;;;;;;;;43591;278;3032033;-31
2024/01/27 02:42:51;;;;;;;4.60;1.50;;;;;;;;;;43586;267;3031406;-31
2024/01/27 02:44:40;;;;;;;5.30;1.80;;;;;;;;;;43593;266;3031867;-31
2024/01/27 02:46:27;;;;;;;5.20;1.60;;;;;;;;;;43591;270;3031611;-31
2024/01/27 02:48:15;;;;;;;5.00;1.80;;;;;;;;;;43592;278;3031839;-31
2024/01/27 02:50:08;;;;;;;4.50;1.60;;;;;;;;;;43564;278;3031759;-31
2024/01/27 02:51:57;;;;;;;4.50;1.70;;;;;;;;;;43799;270;3038566;-31
2024/01/27 02:53:50;;;;;;;4.60;1.60;;;;;;;;;;43575;270;3031202;-31
2024/01/27 02:55:45;;;;;;;4.60;1.60;;;;;;;;;;43551;274;3031928;-31
2024/01/27 02:57:36;;;;;;;4.50;1.50;;;;;;;;;;43636;270;3031680;-31
2024/01/27 02:59:22;;;;;;;4.20;1.40;;;;;;;;;;43591;287;3031866;-31
2024/01/27 03:01:13;;;;;;;5.50;1.90;;;;;;;;;;43573;282;3031950;-31
2024/01/27 03:03:01;;;;;;;4.70;1.60;;;;;;;;;;43575;278;3031576;-31
2024/01/27 03:04:53;;;;;;;4.60;1.60;;;;;;;;;;43578;270;3031266;-31
2024/01/27 03:06:43;;;;;;;4.10;1.40;;;;;;;;;;43573;286;3031166;-31
2024/01/27 03:08:35;;;;;;;;;;;;;;;;;;43595;278;3031444;-31
2024/01/27 03:10:27;;;;;;;3.90;1.50;;;;;;;;;;43577;278;3031407;-31
2024/01/27 03:12:12;;;;;;;4.40;1.40;;;;;;;;;;44197;274;3037059;-31
2024/01/27 03:14:02;;;;;;;3.70;1.30;;;;;;;;;;43965;266;3030823;-31
2024/01/27 03:15:52;;;;;;;4.70;1.60;;;;;;;;;;43594;278;3032146;-31
2024/01/27 03:17:39;;;;;;;4.50;1.30;;;;;;;;;;43591;287;3031758;-31
2024/01/27 03:19:29;;;;;;;4.20;1.50;;;;;;;;;;43591;278;3032806;-31
2024/01/27 03:21:19;;;;;;;4.10;1.30;;;;;;;;;;43565;270;3031716;-31
2024/01/27 03:23:11;;;;;;;4.10;1.40;;;;;;;;;;43588;270;3031900;-31
2024/01/27 03:25:01;;;;;;;3.70;1.30;;;;;;;;;;43588;270;3031409;-31
2024/01/27 03:26:51;;;;;;;4.20;1.30;;;;;;;;;;43587;274;3031778;-31
2024/01/27 03:28:38;;;;;;;4.60;1.20;;;;;;;;;;43566;278;3031450;-31
2024/01/27 03:30:27;;;;;;;4.30;1.40;;;;;;;;;;43604;270;3030797;-31
2024/01/27 03:32:22;;;;;;;4.00;1.50;;;;;;;;;;43545;286;3031964;-31
2024/01/27 03:34:11;;;;;;;4.10;1.30;;;;;;;;;;43576;277;3031673;-31
2024/01/27 03:35:59;;;;;;;4.30;1.30;;;;;;;;;;43577;270;3033622;-31
2024/01/27 03:37:46;;;;;;;4.40;1.50;;;;;;;;;;43594;278;3031504;-31
2024/01/27 03:39:38;;;;;;;4.70;1.30;;;;;;;;;;43590;270;3031954;-31
2024/01/27 03:41:24;;;;;;;4.00;1.20;;;;;;;;;;43563;278;3031542;-31
2024/01/27 03:43:16;;;;;;;3.90;1.30;;;;;;;;;;43557;286;3038153;-31
2024/01/27 03:45:08;;;;;;;4.70;1.70;;;;;;;;;;43579;278;3031518;-31
2024/01/27 03:46:55;;;;;;;4.40;1.20;;;;;;;;;;43886;278;3031243;-31
2024/01/27 03:48:48;;;;;;;4.40;1.20;;;;;;;;;;43559;270;3032206;-31
2024/01/27 03:50:40;;;;;;;4.10;1.20;;;;;;;;;;43582;270;3031504;-31
2024/01/27 03:52:29;;;;;;;4.70;1.30;;;;;;;;;;43569;267;3032060;-31
2024/01/27 03:54:22;;;;;;;3.70;1.30;;;;;;;;;;43579;286;3031328;-31
2024/01/27 03:56:13;;;;;;;4.00;1.40;;;;;;;;;;43577;274;3031519;-31
2024/01/27 03:57:59;;;;;;;3.80;1.30;;;;;;;;;;44264;274;3031138;-31
2024/01/27 03:59:46;;;;;;;4.50;1.40;;;;;;;;;;43727;266;3032310;-31
2024/01/27 04:01:38;;;;;;;3.80;1.30;;;;;;;;;;43591;270;3031999;-31
2024/01/27 04:03:27;;;;;;;4.60;1.50;;;;;;;;;;43564;278;3036796;-31
2024/01/27 04:05:18;;;;;;;4.30;1.40;;;;;;;;;;43602;278;3031652;-31
2024/01/27 04:07:03;;;;;;;4.50;1.10;;;;;;;;;;44247;274;3032019;-31
2024/01/27 04:08:50;;;;;;;4.30;1.40;;;;;;;;;;43716;266;3032083;-31
2024/01/27 04:10:43;;;;;;;4.60;1.40;;;;;;;;;;43596;278;3031388;-31
2024/01/27 04:12:33;;;;;;;4.30;1.10;;;;;;;;;;43555;278;3031997;-31
2024/01/27 04:14:18;;;;;;;3.80;1.10;;;;;;;;;;44240;270;3032129;-31
2024/01/27 04:16:07;;;;;;;4.60;1.50;;;;;;;;;;44161;274;3031633;-31
2024/01/27 04:17:56;;;;;;;4.40;1.50;;;;;;;;;;43713;278;3031130;-31
2024/01/27 04:19:48;;;;;;;5.60;1.50;;;;;;;;;;43573;278;3032014;-31
2024/01/27 04:21:35;;;;;;;4.70;1.40;;;;;;;;;;43582;270;3031845;-31
2024/01/27 04:23:22;;;;;;;4.10;1.30;;;;;;;;;;43562;286;3031595;-31
2024/01/27 04:25:10;;;;;;;3.90;1.40;;;;;;;;;;43605;278;3031737;-31
2024/01/27 04:26:55;;;;;;;4.00;1.30;;;;;;;;;;44291;274;3031920;-31
2024/01/27 04:28:46;;;;;;;4.40;1.30;;;;;;;;;;43751;270;3030720;-31
2024/01/27 04:30:36;;;;;;;4.10;1.30;;;;;;;;;;43585;278;3032053;-31
2024/01/27 04:32:26;;;;;;;3.90;1.20;;;;;;;;;;43583;278;3032808;-31
2024/01/27 04:34:12;;;;;;;3.60;1.30;;;;;;;;;;43567;265;3037046;-31
2024/01/27 04:36:03;;;;;;;4.90;1.30;;;;;;;;;;43578;266;3031209;-31
2024/01/27 04:37:48;;;;;;;4.00;1.20;;;;;;;;;;44141;270;3031748;-31
2024/01/27 04:39:40;;;;;;;3.80;1.30;;;;;;;;;;43607;278;3031795;-31
2024/01/27 04:41:27;;;;;;;4.40;1.20;;;;;;;;;;43585;270;3031631;-31
2024/01/27 04:43:13;;;;;;;3.50;1.20;;;;;;;;;;43549;278;3031702;-31
2024/01/27 04:45:01;;;;;;;4.30;1.40;;;;;;;;;;43579;278;3031902;-31
2024/01/27 04:46:49;;;;;;;4.10;1.30;;;;;;;;;;43608;278;3031417;-31
2024/01/27 04:48:37;;;;;;;3.50;1.30;;;;;;;;;;43576;278;3031776;-31
2024/01/27 04:50:26;;;;;;;4.90;1.40;;;;;;;;;;43589;270;3031389;-31
2024/01/27 04:52:15;;;;;;;4.10;1.40;;;;;;;;;;43598;285;3032334;-31
2024/01/27 04:54:04;;;;;;;4.70;1.60;;;;;;;;;;43569;278;3031746;-31
2024/01/27 04:55:57;;;;;;;4.40;1.40;;;;;;;;;;43581;274;3031944;-31
2024/01/27 04:57:48;;;;;;;4.70;1.70;;;;;;;;;;43600;278;3032185;-31
2024/01/27 04:59:33;;;;;;;4.60;1.40;;;;;;;;;;43569;278;3032291;-31
2024/01/27 05:01:22;;;;;;;5.20;1.30;;;;;;;;;;43598;270;3031521;-31
2024/01/27 05:03:14;;;;;;;4.30;1.20;;;;;;;;;;43598;270;3031838;-31
2024/01/27 05:05:04;;;;;;;5.10;1.60;;;;;;;;;;43585;270;3038018;-31
2024/01/27 05:06:49;;;;;;;3.80;1.50;;;;;;;;;;44251;274;3031619;-31
2024/01/27 05:08:40;;;;;;;4.10;1.40;;;;;;;;;;43826;266;3030822;-31
2024/01/27 05:10:33;;;;;;;5.20;1.70;;;;;;;;;;43586;266;3031216;-31
2024/01/27 05:12:20;;;;;;;4.80;1.70;;;;;;;;;;43596;274;3031406;-31
2024/01/27 05:14:05;;;;;;;4.20;1.40;;;;;;;;;;43567;282;3031346;-31
2024/01/27 05:15:54;;;;;;;4.60;1.50;;;;;;;;;;43585;270;3032255;-31
2024/01/27 05:17:52;;;;;;;4.40;1.60;;;;;;;;;;43599;270;3031407;-31
2024/01/27 05:19:41;;;;;;;5.00;1.60;;;;;;;;;;43591;278;3031096;-31
2024/01/27 05:21:34;;;;;;;4.90;1.50;;;;;;;;;;43580;278;3031625;-31
2024/01/27 05:23:22;;;;;;;4.20;1.50;;;;;;;;;;43593;266;3032054;-31
2024/01/27 05:25:09;;;;;;;5.00;1.40;;;;;;;;;;43567;270;3031222;-31
2024/01/27 05:26:56;;;;;;;4.20;1.50;;;;;;;;;;43776;273;3031208;-31
2024/01/27 05:28:41;;;;;;;4.00;1.50;;;;;;;;;;43581;278;3031185;-31
2024/01/27 05:30:40;;;;;;;4.80;1.40;;;;;;;;;;43581;278;3031291;-31
2024/01/27 05:32:36;;;;;;;5.10;1.70;;;;;;;;;;43580;278;3031096;-31
2024/01/27 05:34:26;;;;;;;4.50;1.40;;;;;;;;;;43558;270;3031651;-31
2024/01/27 05:36:15;;;;;;;4.40;1.40;;;;;;;;;;43579;278;3031508;-31
2024/01/27 05:38:07;;;;;;;4.20;1.30;;;;;;;;;;43685;278;3031167;-31
2024/01/27 05:39:54;;;;;;;4.20;1.30;;;;;;;;;;43873;270;3031596;-31
2024/01/27 05:41:46;;;;;;;3.90;1.50;;;;;;;;;;43563;278;3032076;-31
2024/01/27 05:43:41;;;;;;;4.40;1.30;;;;;;;;;;43576;278;3031352;-31
2024/01/27 05:45:34;;;;;;;5.10;1.60;;;;;;;;;;43542;270;3031612;-31
2024/01/27 05:47:23;;;;;;;4.30;1.40;;;;;;;;;;43743;278;3487842;-31
2024/01/27 05:49:15;;;;;;;4.70;1.50;;;;;;;;;;43573;270;3031579;-31
2024/01/27 05:51:07;;;;;;;4.30;1.40;;;;;;;;;;43606;278;3031352;-31
2024/01/27 05:53:00;;;;;;;4.60;1.50;;;;;;;;;;44204;274;3031907;-31
2024/01/27 05:54:46;;;;;;;4.50;1.20;;;;;;;;;;43577;286;3031512;-31
2024/01/27 05:56:35;;;;;;;4.80;1.20;;;;;;;;;;43605;270;3031352;-31
2024/01/27 05:58:29;;;;;;;4.40;1.40;;;;;;;;;;43584;270;3031629;-31
2024/01/27 06:00:17;;;;;;;4.70;1.60;;;;;;;;;;43609;270;3031740;-31
2024/01/27 06:02:02;;;;;;;4.00;1.40;;;;;;;;;;44292;266;3031832;-31
2024/01/27 06:03:50;;;;;;;4.00;1.30;;;;;;;;;;43856;274;3031101;-31
2024/01/27 06:05:39;;;;;;;4.50;1.30;;;;;;;;;;43573;278;3031256;-31
2024/01/27 06:07:24;;;;;;;4.10;1.40;;;;;;;;;;44245;278;3031829;-31
2024/01/27 06:09:16;;;;;;;4.40;1.40;;;;;;;;;;43887;266;3031722;-31
2024/01/27 06:11:03;;;;;;;3.80;1.40;;;;;;;;;;43575;278;3031302;-31
2024/01/27 06:12:59;;;;;;;4.70;1.50;;;;;;;;;;43591;270;3031615;-31
2024/01/27 06:14:49;;;;;;;4.50;1.30;;;;;;;;;;43899;274;3031661;-31
2024/01/27 06:16:43;;;;;;;4.30;1.60;;;;;;;;;;43539;278;3037679;-31
2024/01/27 06:18:38;;;;;;;4.60;1.40;;;;;;;;;;43586;270;3031758;-31
2024/01/27 06:20:30;;;;;;;4.60;1.60;;;;;;;;;;43585;270;3032039;-31
2024/01/27 06:22:18;;;;;;;4.60;1.50;;;;;;;;;;43581;270;3031165;-31
2024/01/27 06:24:11;;;;;;;5.00;1.50;;;;;;;;;;43579;286;3031291;-31
2024/01/27 06:25:56;;;;;;;4.30;1.30;;;;;;;;;;44231;270;3031694;-31
2024/01/27 06:27:50;;;;;;;4.50;1.50;;;;;;;;;;43634;287;3032734;-31
2024/01/27 06:29:38;;;;;;;4.70;1.30;;;;;;;;;;43584;278;3032008;-31
2024/01/27 06:31:26;;;;;;;4.40;1.30;;;;;;;;;;43599;286;3032255;-31
2024/01/27 06:33:18;;;;;;;5.00;1.30;;;;;;;;;;43577;271;3032825;-31
2024/01/27 06:35:08;;;;;;;4.40;1.30;;;;;;;;;;43543;278;3031123;-31
2024/01/27 06:36:58;;;;;;;4.10;1.30;;;;;;;;;;43856;272;3031125;-31
2024/01/27 06:38:44;;;;;;;4.50;1.40;;;;;;;;;;43591;270;3031984;-31
2024/01/27 06:40:32;;;;;;;4.70;1.40;;;;;;;;;;43583;266;3031363;-31
2024/01/27 06:42:22;;;;;;;4.90;1.40;;;;;;;;;;43583;266;3031684;-31
2024/01/27 06:44:09;;;;;;;4.40;1.70;;;;;;;;;;43575;278;3031871;-31
2024/01/27 06:46:01;;;;;;;4.60;1.50;;;;;;;;;;43579;270;3031303;-31
2024/01/27 06:47:56;;;;;;;5.10;1.40;;;;;;;;;;43573;270;3037939;-31
2024/01/27 06:49:47;;;;;;;4.70;1.30;;;;;;;;;;43585;278;3031896;-31
2024/01/27 06:51:38;;;;;;;4.70;1.50;;;;;;;;;;43601;278;3031841;-31
2024/01/27 06:53:32;;;;;;;4.70;1.30;;;;;;;;;;43582;270;3033096;-31
2024/01/27 06:55:20;;;;;;;4.20;1.30;;;;;;;;;;43596;267;3031300;-31
2024/01/27 06:57:07;;;;;;;4.90;1.40;;;;;;;;;;43546;278;3032457;-31
2024/01/27 06:58:54;;;;;;;4.50;1.50;;;;;;;;;;43928;267;3032337;-31
2024/01/27 07:00:48;;;;;;;4.30;1.40;;;;;;;;;;43582;286;3031994;-31
2024/01/27 07:02:37;;;;;;;4.30;1.20;;;;;;;;;;43918;266;3031869;-31
2024/01/27 07:04:27;;;;;;;5.10;1.50;;;;;;;;;;43599;270;3031917;-31
2024/01/27 07:06:17;;;;;;;4.40;1.60;;;;;;;;;;43622;274;3031114;-31
2024/01/27 07:08:06;;;;;;;4.40;1.40;;;;;;;;;;43553;270;3031704;-31
2024/01/27 07:09:54;;;;;;;4.10;1.20;;;;;;;;;;43980;273;3031453;-31
2024/01/27 07:11:44;;;;;;;4.30;1.50;;;;;;;;;;43584;286;3031777;-31
2024/01/27 07:13:39;;;;;;;4.40;1.30;;;;;;;;;;43577;270;3032031;-31
2024/01/27 07:15:28;;;;;;;4.50;1.40;;;;;;;;;;43580;286;3031888;-31
2024/01/27 07:17:22;;;;;;;4.70;1.50;;;;;;;;;;43543;270;3031954;-31
2024/01/27 07:19:16;;;;;;;5.60;1.50;;;;;;;;;;43598;270;3032757;-31
2024/01/27 07:21:07;;;;;;;4.00;1.20;;;;;;;;;;43595;278;3033627;-31
2024/01/27 07:23:01;;;;;;;4.60;1.30;;;;;;;;;;43654;286;3032355;-31
2024/01/27 07:24:51;;;;;;;4.10;1.30;;;;;;;;;;43580;270;3031396;-31
2024/01/27 07:26:45;;;;;;;4.10;1.40;;;;;;;;;;43600;266;3031275;-31
2024/01/27 07:28:35;;;;;;;3.50;1.10;;;;;;;;;;43578;270;3031359;-31
2024/01/27 07:30:22;;;;;;;4.60;1.30;;;;;;;;;;43585;278;3032687;-31
2024/01/27 07:32:13;;;;;;;4.60;1.40;;;;;;;;;;43568;278;3031743;-31
2024/01/27 07:34:02;;;;;;;4.00;1.40;;;;;;;;;;43692;278;3031852;-31
2024/01/27 07:35:51;;;;;;;4.20;1.30;;;;;;;;;;43597;270;3031247;-31
2024/01/27 07:37:40;;;;;;;3.90;1.20;;;;;;;;;;43551;279;3031859;-31
2024/01/27 07:39:27;;;;;;;4.90;1.60;;;;;;;;;;43723;274;3031302;-31
2024/01/27 07:41:15;;;;;;;4.40;1.20;;;;;;;;;;43575;271;3031882;-31
2024/01/27 07:43:03;;;;;;;4.70;1.50;;;;;;;;;;43565;270;3031484;-30
2024/01/27 07:44:57;;;;;;;4.70;1.30;;;;;;;;;;43699;278;3032102;-31
2024/01/27 07:46:52;;;;;;;4.00;1.20;;;;;;;;;;43585;278;3031849;-31
2024/01/27 07:48:46;;;;;;;3.80;1.20;;;;;;;;;;43541;278;3031277;-31
2024/01/27 07:50:45;;;;;;;3.40;1.30;;;;;;;;;;43589;266;3032081;-30
2024/01/27 07:52:39;;;;;;;3.90;1.40;;;;;;;;;;43565;278;3031826;-30
2024/01/27 07:54:31;;;;;;;3.70;1.20;;;;;;;;;;43581;278;3031554;-30
2024/01/27 07:56:21;;;;;;;;;;;;;;;;;;43595;270;3032412;-31
2024/01/27 07:58:14;;;;;;;3.90;1.20;;;;;;;;;;43565;270;3032066;-30
2024/01/27 08:00:07;;;;;;;3.80;1.20;;;;;;;;;;44012;274;3031605;-31
2024/01/27 08:01:59;;;;;;;3.60;1.10;;;;;;;;;;43693;278;3031615;-33
2024/01/27 08:03:47;;;;;;;3.70;1.20;;;;;;;;;;43561;270;3032519;-32
2024/01/27 08:05:38;;;;;;;4.20;1.30;;;;;;;;;;43594;278;3032007;-32
2024/01/27 08:07:33;;;;;;;3.80;1.30;;;;;;;;;;43590;278;3031218;-31
2024/01/27 08:09:23;;;;;;;3.90;1.30;;;;;;;;;;43549;266;3031604;-31
2024/01/27 08:11:12;;;;;;;4.60;1.20;;;;;;;;;;43600;278;3031702;-32
2024/01/27 08:12:58;;;;;;;4.00;1.40;;;;;;;;;;43653;286;3031463;-32
2024/01/27 08:14:46;;;;;;;3.50;1.10;;;;;;;;;;43608;266;3031193;-32
2024/01/27 08:16:38;;;;;;;4.50;1.40;;;;;;;;;;43589;278;3031476;-31
2024/01/27 08:18:24;;;;;;;4.40;1.40;;;;;;;;;;43570;270;3032749;-31
2024/01/27 08:20:13;;;;;;;4.80;1.50;;;;;;;;;;43563;287;3032012;-31
2024/01/27 08:21:59;;;;;;;3.80;1.30;;;;;;;;;;44036;266;3032148;-31
2024/01/27 08:23:48;;;;;;;5.40;1.70;;;;;;;;;;43602;270;3032189;-32
2024/01/27 08:25:35;;;;;;;4.60;1.30;;;;;;;;;;43600;270;3031694;-32
2024/01/27 08:27:25;;;;;;;4.00;1.30;;;;;;;;;;43584;278;3031864;-31
2024/01/27 08:29:11;;;;;;;5.00;1.30;;;;;;;;;;43574;278;3031330;-32
2024/01/27 08:31:15;;;;;;;4.10;1.40;;;;;;;;;;43575;278;3031526;-32
2024/01/27 08:33:07;;;;;;;4.50;1.40;;;;;;;;;;43571;271;3032793;-31
2024/01/27 08:34:54;;;;;;;3.30;1.10;;;;;;;;;;43619;269;3031639;-32
2024/01/27 08:36:40;;;;;;;5.20;1.70;;;;;;;;;;43596;277;3031957;-31
2024/01/27 08:38:31;;;;;;;5.00;1.50;;;;;;;;;;43618;278;3031988;-32
2024/01/27 08:40:18;;;;;;;4.40;1.40;;;;;;;;;;43592;269;3037948;-31
2024/01/27 08:42:05;;;;;;;3.80;1.40;;;;;;;;;;44184;266;3031520;-32
2024/01/27 08:43:52;;;;;;;4.10;1.40;;;;;;;;;;43661;277;3031949;-32
2024/01/27 08:45:42;;;;;;;4.50;1.50;;;;;;;;;;43593;273;3032047;-32
2024/01/27 08:47:31;;;;;;;3.90;1.20;;;;;;;;;;43611;269;3032618;-32
2024/01/27 08:49:19;;;;;;;3.80;1.30;;;;;;;;;;43741;269;3031185;-32
2024/01/27 08:51:06;;;;;;;4.30;1.50;;;;;;;;;;43615;273;3031556;-32
2024/01/27 08:52:55;;;;;;;5.40;1.70;;;;;;;;;;43625;273;3033276;-32
2024/01/27 08:54:44;;;;;;;5.50;1.80;;;;;;;;;;43586;266;3031573;-32
2024/01/27 08:56:34;;;;;;;4.60;1.70;;;;;;;;;;43610;270;3032184;-32
2024/01/27 08:58:23;;;;;;;4.90;1.50;;;;;;;;;;43592;274;3031428;-32
2024/01/27 09:00:13;;;;;;;4.80;1.40;;;;;;;;;;43569;269;3031744;-32
2024/01/27 09:01:57;;;;;;;4.40;1.30;;;;;;;;;;44258;274;3031554;-32
2024/01/27 09:03:48;;;;;;;5.50;1.60;;;;;;;;;;43657;273;3030662;-32
2024/01/27 09:05:35;;;;;;;4.60;1.50;;;;;;;;;;43936;273;3031070;-32
2024/01/27 09:07:26;;;;;;;3.60;1.40;;;;;;;;;;43623;285;3031643;-32
2024/01/27 09:09:13;;;;;;;4.40;1.30;;;;;;;;;;43590;269;3032027;-32
2024/01/27 09:11:03;;;;;;;4.20;1.40;;;;;;;;;;43596;273;3039113;-32
2024/01/27 09:12:48;;;;;;;4.40;1.40;;;;;;;;;;44253;273;3031440;-32
2024/01/27 09:14:34;;;;;;;4.20;1.40;;;;;;;;;;43998;273;3030717;-32
2024/01/27 09:16:21;;;;;;;4.70;1.60;;;;;;;;;;43617;269;3031501;-32
2024/01/27 09:18:08;;;;;;;3.90;1.30;;;;;;;;;;43615;274;3031454;-32
2024/01/27 09:19:58;;;;;;;4.30;1.40;;;;;;;;;;44245;269;3031661;-32
2024/01/27 09:21:46;;;;;;;4.20;1.20;;;;;;;;;;44130;269;3031212;-32
2024/01/27 09:23:32;;;;;;;4.60;1.50;;;;;;;;;;44292;265;3031241;-32
2024/01/27 09:25:19;;;;;;;5.30;1.50;;;;;;;;;;44007;265;3031580;-32
2024/01/27 09:27:05;;;;;;;4.60;1.40;;;;;;;;;;44187;273;3031947;-32
2024/01/27 09:28:54;;;;;;;4.40;1.40;;;;;;;;;;43644;269;3031584;-31
2024/01/27 09:30:43;;;;;;;4.10;1.40;;;;;;;;;;43592;281;3031553;-32
2024/01/27 09:32:35;;;;;;;5.60;1.30;;;;;;;;;;43614;277;3031526;-32
2024/01/27 09:34:25;;;;;;;4.60;1.10;;;;;;;;;;43644;266;3032276;-32
2024/01/27 09:36:14;;;;;;;3.50;1.10;;;;;;;;;;43642;269;3031704;-32
2024/01/27 09:37:59;;;;;;;3.50;1.20;;;;;;;;;;44332;269;3031028;-32
2024/01/27 09:39:43;;;;;;;4.90;1.60;;;;;;;;;;43704;274;3030897;-32
2024/01/27 09:41:34;;;;;;;4.30;1.30;;;;;;;;;;43565;277;3031654;-32
2024/01/27 09:43:22;;;;;;;3.60;1.30;;;;;;;;;;44128;269;3031416;-32
2024/01/27 09:45:11;;;;;;;4.90;1.60;;;;;;;;;;43622;286;3031905;-32
2024/01/27 09:46:57;;;;;;;4.20;1.30;;;;;;;;;;44218;277;3031609;-32
2024/01/27 09:48:44;;;;;;;3.90;1.30;;;;;;;;;;43683;277;3031332;-32
2024/01/27 09:50:37;;;;;;;3.80;1.20;;;;;;;;;;43595;269;3031529;-32
2024/01/27 09:52:24;;;;;;;4.80;1.30;;;;;;;;;;44285;274;3037552;-32
2024/01/27 09:54:20;;;;;;;4.10;1.40;;;;;;;;;;43954;277;3031160;-32
2024/01/27 09:56:06;;;;;;;4.00;1.20;;;;;;;;;;43589;274;3031750;-32
2024/01/27 09:57:52;;;;;;;3.60;1.40;;;;;;;;;;44321;269;3031634;-32
2024/01/27 09:59:46;;;;;;;4.50;1.60;;;;;;;;;;43739;277;3031922;-32
2024/01/27 10:01:35;;;;;;;3.80;1.40;;;;;;;;;;43591;270;3031455;-32
2024/01/27 10:03:26;;;;;;;4.20;1.30;;;;;;;;;;44212;266;3030992;-32
2024/01/27 10:05:13;;;;;;;4.00;1.50;;;;;;;;;;44231;269;3031268;-32
2024/01/27 10:07:00;;;;;;;4.30;1.40;;;;;;;;;;44260;277;3031055;-32
2024/01/27 10:08:54;;;;;;;4.30;1.30;;;;;;;;;;44280;274;3031809;-32
2024/01/27 10:10:43;;;;;;;4.70;1.60;;;;;;;;;;43957;269;3031478;-32
2024/01/27 10:12:31;;;;;;;4.00;1.50;;;;;;;;;;44277;274;3031132;-32
2024/01/27 10:14:16;;;;;;;4.20;1.30;;;;;;;;;;44351;274;3031360;-32
2024/01/27 10:16:09;;;;;;;4.60;1.60;;;;;;;;;;44348;265;3032256;-32
2024/01/27 10:18:04;;;;;;;3.90;1.40;;;;;;;;;;44292;266;3031242;-32
2024/01/27 10:20:03;;;;;;;4.20;1.40;;;;;;;;;;43637;277;3031306;-32
2024/01/27 10:22:04;;;;;;;4.90;1.80;;;;;;;;;;43676;286;3031361;-32
2024/01/27 10:23:55;;;;;;;4.30;1.50;;;;;;;;;;43634;269;3032562;-32
2024/01/27 10:25:43;;;;;;;4.20;1.50;;;;;;;;;;43637;269;3031528;-32
2024/01/27 10:27:28;;;;;;;4.90;1.60;;;;;;;;;;44312;274;3031860;-32
2024/01/27 10:29:13;;;;;;;5.20;1.60;;;;;;;;;;44286;274;3032615;-32
2024/01/27 10:31:23;;;;;;;4.20;1.70;;;;;;;;;;44020;274;3031402;-32
2024/01/27 10:33:15;;;;;;;5.60;1.70;;;;;;;;;;43619;269;3037006;-32
2024/01/27 10:35:10;;;;;;;5.50;1.50;;;;;;;;;;43646;274;3031365;-32
2024/01/27 10:36:53;;;;;;;;;;;;;;;;;;44331;274;3031894;-32
2024/01/27 10:38:41;;;;;;;4.40;1.60;;;;;;;;;;44057;269;3030740;-32
2024/01/27 10:40:26;;;;;;;4.70;1.50;;;;;;;;;;44272;273;3031248;-32
2024/01/27 10:42:13;;;;;;;3.90;1.40;;;;;;;;;;44315;269;3031674;-32
2024/01/27 10:44:00;;;;;;;5.10;1.60;;;;;;;;;;44264;269;3031400;-32
2024/01/27 10:45:48;;;;;;;4.00;1.60;;;;;;;;;;43811;277;3031359;-32
2024/01/27 10:47:41;;;;;;;4.60;1.70;;;;;;;;;;43602;269;3031843;-32